createdAt,value
2022-11-24T00:00:12.638Z,53.47
2022-11-24T00:02:42.414Z,62.90
2022-11-24T00:05:10.839Z,58.10
2022-11-24T00:07:39.994Z,56.78
2022-11-24T00:10:08.698Z,63.25
2022-11-24T00:12:37.512Z,53.05
2022-11-24T00:15:06.571Z,58.05
2022-11-24T00:17:34.909Z,56.08
2022-11-24T00:20:05.681Z,56.45
2022-11-24T00:22:35.396Z,53.47
2022-11-24T00:25:03.665Z,52.60
2022-11-24T00:27:33.498Z,68.07
2022-11-24T00:30:01.883Z,60.63
2022-11-24T00:32:31.219Z,62.75
2022-11-24T00:35:00.309Z,58.63
2022-11-24T00:37:37.420Z,57.40
2022-11-24T00:40:06.695Z,63.78
2022-11-24T00:42:38.266Z,53.10
2022-11-24T00:45:13.925Z,50.97
2022-11-24T00:47:42.458Z,51.15
2022-11-24T00:50:11.242Z,57.70
2022-11-24T00:52:40.833Z,51.38
2022-11-24T00:55:09.242Z,52.22
2022-11-24T00:57:37.277Z,61.80
2022-11-24T01:00:07.135Z,53.17
2022-11-24T01:02:35.484Z,63.42
2022-11-24T01:05:03.948Z,55.53
2022-11-24T01:07:33.876Z,57.05
2022-11-24T01:10:04.009Z,57.63
2022-11-24T01:12:34.012Z,51.40
2022-11-24T01:15:02.190Z,55.20
2022-11-24T01:17:34.296Z,53.47
2022-11-24T01:20:02.990Z,57.47
2022-11-24T01:22:31.607Z,51.53
2022-11-24T01:24:59.597Z,59.20
2022-11-24T01:27:32.807Z,55.80
2022-11-24T01:30:01.927Z,67.20
2022-11-24T01:32:33.110Z,55.15
2022-11-24T01:35:02.694Z,56.83
2022-11-24T01:37:32.946Z,68.57
2022-11-24T01:40:01.062Z,69.00
2022-11-24T01:42:41.672Z,57.42
2022-11-24T01:45:33.576Z,55.47
2022-11-24T01:48:29.075Z,64.03
2022-11-24T01:51:07.526Z,54.92
2022-11-24T01:53:37.712Z,55.40
2022-11-24T01:56:08.796Z,56.97
2022-11-24T01:58:39.928Z,53.85
2022-11-24T02:01:08.818Z,55.25
2022-11-24T02:03:41.659Z,55.10
2022-11-24T02:06:12.984Z,56.25
2022-11-24T02:08:48.001Z,57.30
2022-11-24T02:11:18.931Z,53.38
2022-11-24T02:13:49.511Z,53.63
2022-11-24T02:16:19.588Z,52.42
2022-11-24T02:18:47.758Z,53.75
2022-11-24T02:21:17.084Z,54.55
2022-11-24T02:23:52.214Z,52.97
2022-11-24T02:26:30.341Z,55.47
2022-11-24T02:28:59.307Z,66.90
2022-11-24T02:31:27.451Z,61.70
2022-11-24T02:33:57.766Z,60.80
2022-11-24T02:36:28.272Z,64.47
2022-11-24T02:38:56.495Z,57.63
2022-11-24T02:41:27.262Z,63.88
2022-11-24T02:43:56.757Z,64.53
2022-11-24T02:46:25.129Z,70.78
2022-11-24T02:48:53.331Z,59.40
2022-11-24T02:51:21.309Z,55.20
2022-11-24T02:53:49.711Z,59.00
2022-11-24T02:56:17.959Z,52.65
2022-11-24T02:58:47.536Z,50.33
2022-11-24T03:01:17.260Z,51.83
2022-11-24T03:03:45.406Z,56.10
2022-11-24T03:06:15.203Z,56.85
2022-11-24T03:08:44.916Z,50.47
2022-11-24T03:11:13.949Z,53.95
2022-11-24T03:13:41.852Z,63.72
2022-11-24T03:16:11.923Z,55.17
2022-11-24T03:18:40.623Z,61.70
2022-11-24T03:21:12.304Z,51.42
2022-11-24T03:23:41.255Z,51.70
2022-11-24T03:26:10.687Z,60.17
2022-11-24T03:28:39.073Z,54.05
2022-11-24T03:31:07.756Z,54.85
2022-11-24T03:33:37.569Z,55.47
2022-11-24T03:36:07.222Z,58.08
2022-11-24T03:38:35.596Z,58.45
2022-11-24T03:41:03.624Z,57.40
2022-11-24T03:43:32.341Z,56.30
2022-11-24T03:46:00.817Z,55.22
2022-11-24T03:48:29.259Z,63.38
2022-11-24T03:51:00.714Z,58.83
2022-11-24T03:53:31.448Z,71.88
2022-11-24T03:55:59.611Z,55.72
2022-11-24T03:58:31.529Z,54.20
2022-11-24T04:00:59.775Z,64.68
2022-11-24T04:03:27.841Z,68.72
2022-11-24T04:05:57.420Z,53.47
2022-11-24T04:08:26.963Z,61.60
2022-11-24T04:10:55.978Z,60.33
2022-11-24T04:13:25.395Z,55.70
2022-11-24T04:15:57.966Z,56.95
2022-11-24T04:18:26.194Z,55.47
2022-11-24T04:20:54.393Z,55.85
2022-11-24T04:23:22.631Z,53.70
2022-11-24T04:25:55.432Z,59.97
2022-11-24T04:28:23.488Z,54.33
2022-11-24T04:30:53.883Z,59.20
2022-11-24T04:33:22.063Z,58.00
2022-11-24T04:35:52.129Z,67.82
2022-11-24T04:39:24.377Z,63.42
2022-11-24T04:41:10.706Z,57.20
2022-11-24T04:43:40.905Z,58.10
2022-11-24T04:46:10.507Z,56.67
2022-11-24T04:48:42.937Z,63.25
2022-11-24T04:51:12.039Z,62.67
2022-11-24T04:53:40.465Z,57.00
2022-11-24T04:56:11.104Z,57.15
2022-11-24T04:58:39.582Z,59.78
2022-11-24T05:01:09.750Z,66.13
2022-11-24T05:03:38.282Z,52.63
2022-11-24T05:06:08.873Z,53.67
2022-11-24T05:08:37.147Z,56.08
2022-11-24T05:11:07.743Z,56.60
2022-11-24T05:13:37.427Z,58.83
2022-11-24T05:16:06.411Z,54.38
2022-11-24T05:18:34.559Z,56.03
2022-11-24T05:21:03.408Z,59.28
2022-11-24T05:23:31.708Z,59.50
2022-11-24T05:26:00.978Z,56.63
2022-11-24T05:28:33.380Z,63.78
2022-11-24T05:31:03.848Z,55.10
2022-11-24T05:33:34.261Z,59.58
2022-11-24T05:36:03.301Z,60.10
2022-11-24T05:38:32.175Z,59.92
2022-11-24T05:41:07.071Z,56.55
2022-11-24T05:43:35.221Z,57.15
2022-11-24T05:46:05.002Z,55.50
2022-11-24T05:48:33.021Z,56.05
2022-11-24T05:51:03.182Z,56.08
2022-11-24T05:53:34.620Z,57.70
2022-11-24T05:56:03.852Z,63.15
2022-11-24T05:58:33.744Z,59.22
2022-11-24T06:01:02.261Z,57.78
2022-11-24T06:03:32.174Z,55.08
2022-11-24T06:06:00.636Z,55.58
2022-11-24T06:08:31.250Z,58.10
2022-11-24T06:11:17.150Z,57.30
2022-11-24T06:13:46.368Z,55.83
2022-11-24T06:16:15.235Z,55.35
2022-11-24T06:18:46.067Z,62.80
2022-11-24T06:21:14.587Z,59.17
2022-11-24T06:23:42.621Z,60.28
2022-11-24T06:26:11.305Z,59.83
2022-11-24T06:28:39.385Z,57.28
2022-11-24T06:31:07.962Z,62.30
2022-11-24T06:33:38.191Z,61.40
2022-11-24T06:36:10.984Z,56.85
2022-11-24T06:38:39.053Z,58.45
2022-11-24T06:41:09.070Z,57.80
2022-11-24T06:43:37.450Z,58.03
2022-11-24T06:46:08.261Z,56.15
2022-11-24T06:48:36.698Z,57.55
2022-11-24T06:51:08.602Z,58.15
2022-11-24T06:53:39.562Z,61.72
2022-11-24T06:56:15.781Z,56.00
2022-11-24T06:58:46.633Z,58.35
2022-11-24T07:01:16.046Z,54.67
2022-11-24T07:03:45.418Z,57.17
2022-11-24T07:06:15.305Z,57.35
2022-11-24T07:08:44.644Z,56.45
2022-11-24T07:11:15.640Z,59.08
2022-11-24T07:13:45.332Z,58.58
2022-11-24T07:16:15.269Z,56.42
2022-11-24T07:18:43.756Z,56.95
2022-11-24T07:21:21.840Z,58.15
2022-11-24T07:23:52.227Z,59.15
2022-11-24T07:26:21.048Z,57.40
2022-11-24T07:28:49.717Z,59.03
2022-11-24T07:31:20.233Z,63.20
2022-11-24T07:33:49.501Z,58.42
2022-11-24T07:36:19.465Z,59.92
2022-11-24T07:38:48.111Z,57.45
2022-11-24T07:41:17.957Z,63.65
2022-11-24T07:43:46.061Z,61.50
2022-11-24T07:46:18.291Z,62.85
2022-11-24T07:48:47.099Z,64.15
2022-11-24T07:51:16.157Z,63.78
2022-11-24T07:53:46.827Z,65.00
2022-11-24T07:56:15.074Z,63.22
2022-11-24T07:58:48.325Z,64.30
2022-11-24T08:01:20.961Z,65.55
2022-11-24T08:03:50.341Z,63.20
2022-11-24T08:06:31.811Z,65.03
2022-11-24T08:09:11.358Z,59.92
2022-11-24T08:11:39.493Z,61.28
2022-11-24T08:14:10.177Z,58.25
2022-11-24T08:16:39.100Z,62.58
2022-11-24T08:19:09.444Z,56.70
2022-11-24T08:21:38.506Z,59.95
2022-11-24T08:24:10.036Z,62.75
2022-11-24T08:26:40.635Z,61.97
2022-11-24T08:29:09.417Z,60.92
2022-11-24T08:31:40.907Z,59.90
2022-11-24T08:34:10.335Z,60.08
2022-11-24T08:36:38.307Z,59.63
2022-11-24T08:39:08.053Z,62.58
2022-11-24T08:41:36.066Z,63.00
2022-11-24T08:44:04.674Z,61.70
2022-11-24T08:46:32.698Z,66.05
2022-11-24T08:49:01.023Z,59.17
2022-11-24T08:51:29.723Z,62.53
2022-11-24T08:53:59.081Z,65.78
2022-11-24T08:56:30.591Z,61.15
2022-11-24T08:58:59.407Z,60.63
2022-11-24T09:01:28.236Z,60.15
2022-11-24T09:03:58.440Z,61.58
2022-11-24T09:06:30.889Z,61.30
2022-11-24T09:08:59.377Z,59.63
2022-11-24T09:11:30.750Z,59.40
2022-11-24T09:13:59.074Z,55.10
2022-11-24T09:16:29.897Z,59.42
2022-11-24T09:19:01.258Z,56.17
2022-11-24T09:21:34.573Z,55.30
2022-11-24T09:24:04.032Z,56.60
2022-11-24T09:26:36.039Z,56.42
2022-11-24T09:29:08.163Z,56.00
2022-11-24T09:34:11.156Z,57.22
2022-11-24T09:36:39.185Z,55.80
2022-11-24T09:39:07.671Z,57.30
2022-11-24T09:41:41.372Z,57.13
2022-11-24T09:44:17.910Z,63.50
2022-11-24T09:46:53.049Z,57.47
2022-11-24T09:49:27.558Z,56.53
2022-11-24T09:51:57.754Z,54.25
2022-11-24T09:54:29.332Z,56.67
2022-11-24T09:57:02.910Z,55.25
2022-11-24T09:59:31.391Z,52.67
2022-11-24T10:02:01.271Z,52.85
2022-11-24T10:04:41.416Z,52.08
2022-11-24T10:07:16.256Z,51.83
2022-11-24T10:09:55.869Z,53.65
2022-11-24T10:12:37.939Z,51.83
2022-11-24T10:15:25.703Z,50.25
2022-11-24T10:18:17.757Z,50.72
2022-11-24T10:20:59.003Z,48.65
2022-11-24T10:23:40.885Z,48.85
2022-11-24T10:26:10.291Z,46.30
2022-11-24T10:28:43.498Z,43.72
2022-11-24T10:31:23.001Z,41.63
2022-11-24T10:33:51.461Z,46.65
2022-11-24T10:36:23.318Z,44.58
2022-11-24T10:38:59.110Z,42.60
2022-11-24T10:41:39.371Z,40.15
2022-11-24T10:44:17.152Z,41.80
2022-11-24T10:46:45.758Z,37.38
2022-11-24T10:49:19.836Z,36.97
2022-11-24T10:51:54.522Z,39.10
2022-11-24T10:54:24.683Z,37.08
2022-11-24T10:56:54.498Z,34.92
2022-11-24T10:59:40.591Z,32.28
2022-11-24T11:02:34.123Z,33.97
2022-11-24T11:05:32.049Z,33.05
2022-11-24T11:08:17.947Z,30.63
2022-11-24T11:10:47.348Z,30.10
2022-11-24T11:13:28.506Z,32.67
2022-11-24T11:16:00.942Z,30.33
2022-11-24T11:18:33.539Z,32.03
2022-11-24T11:21:02.971Z,32.08
2022-11-24T11:23:34.734Z,32.05
2022-11-24T11:26:18.398Z,31.60
2022-11-24T11:31:15.377Z,33.05
2022-11-24T11:34:49.325Z,33.90
2022-11-24T11:37:18.799Z,34.50
2022-11-24T11:39:51.560Z,31.98
2022-11-24T11:42:53.587Z,35.38
2022-11-24T11:47:45.378Z,33.85
2022-11-24T11:50:18.040Z,35.22
2022-11-24T11:53:06.881Z,34.88
2022-11-24T11:55:48.185Z,32.88
2022-11-24T11:58:55.614Z,34.85
2022-11-24T12:01:40.294Z,34.28
2022-11-24T12:04:37.353Z,34.67
2022-11-24T12:07:20.994Z,33.47
2022-11-24T12:09:57.345Z,35.13
2022-11-24T12:12:46.313Z,34.10
2022-11-24T12:15:22.573Z,32.28
2022-11-24T12:17:59.930Z,34.20
2022-11-24T12:20:41.412Z,36.78
2022-11-24T12:23:18.854Z,36.87
2022-11-24T12:25:49.373Z,40.38
2022-11-24T12:28:29.568Z,37.60
2022-11-24T12:31:07.014Z,35.55
2022-11-24T12:34:15.204Z,34.75
2022-11-24T12:36:57.676Z,33.40
2022-11-24T12:42:06.422Z,33.03
2022-11-24T12:44:52.515Z,34.65
2022-11-24T12:47:24.695Z,35.55
2022-11-24T12:50:02.731Z,33.97
2022-11-24T12:52:34.681Z,35.15
2022-11-24T12:55:03.375Z,34.72
2022-11-24T12:57:35.338Z,35.58
2022-11-24T13:00:07.196Z,34.30
2022-11-24T13:02:44.474Z,34.25
2022-11-24T13:05:21.401Z,35.08
2022-11-24T13:07:57.566Z,35.25
2022-11-24T13:13:27.326Z,34.47
2022-11-24T13:19:09.654Z,34.83
2022-11-24T13:22:06.057Z,35.03
2022-11-24T13:24:36.963Z,32.70
2022-11-24T13:27:28.447Z,32.85
2022-11-24T13:29:56.962Z,33.38
2022-11-24T13:33:04.805Z,33.92
2022-11-24T13:35:33.033Z,30.90
2022-11-24T13:38:05.529Z,31.00
2022-11-24T13:41:13.468Z,35.20
2022-11-24T13:44:23.291Z,34.03
2022-11-24T13:47:04.757Z,31.77
2022-11-24T13:49:39.110Z,32.70
2022-11-24T13:52:39.659Z,31.38
2022-11-24T13:55:22.420Z,30.25
2022-11-24T13:57:54.521Z,32.00
2022-11-24T14:00:25.338Z,30.67
2022-11-24T14:02:55.253Z,32.03
2022-11-24T14:05:26.457Z,32.95
2022-11-24T14:07:55.515Z,32.30
2022-11-24T14:10:30.438Z,34.25
2022-11-24T14:13:32.400Z,33.85
2022-11-24T14:16:02.552Z,31.67
2022-11-24T14:18:31.808Z,32.75
2022-11-24T14:21:02.575Z,34.92
2022-11-24T14:23:32.398Z,33.35
2022-11-24T14:26:00.677Z,32.78
2022-11-24T14:28:30.770Z,33.70
2022-11-24T14:31:09.619Z,37.35
2022-11-24T14:33:37.800Z,33.80
2022-11-24T14:36:06.807Z,33.40
2022-11-24T14:38:36.390Z,36.40
2022-11-24T14:41:20.711Z,34.28
2022-11-24T14:43:50.425Z,34.60
2022-11-24T14:46:20.118Z,35.53
2022-11-24T14:48:50.571Z,36.53
2022-11-24T14:51:23.223Z,36.28
2022-11-24T14:53:58.982Z,37.85
2022-11-24T14:56:29.452Z,35.53
2022-11-24T14:59:00.006Z,36.25
2022-11-24T15:01:33.955Z,38.20
2022-11-24T15:04:46.699Z,38.55
2022-11-24T15:07:15.455Z,37.78
2022-11-24T15:09:53.111Z,40.42
2022-11-24T15:12:29.233Z,41.45
2022-11-24T15:15:01.687Z,40.38
2022-11-24T15:17:31.400Z,39.42
2022-11-24T15:20:02.426Z,41.10
2022-11-24T15:22:39.352Z,39.55
2022-11-24T15:25:27.931Z,41.17
2022-11-24T15:27:56.057Z,42.35
2022-11-24T15:30:26.489Z,42.53
2022-11-24T15:32:56.109Z,43.10
2022-11-24T15:35:26.024Z,42.83
2022-11-24T15:37:54.308Z,42.42
2022-11-24T15:40:22.930Z,44.67
2022-11-24T15:42:52.792Z,44.33
2022-11-24T15:45:23.100Z,44.58
2022-11-24T15:47:54.624Z,44.17
2022-11-24T15:50:24.798Z,43.60
2022-11-24T15:52:54.227Z,42.10
2022-11-24T15:55:23.035Z,45.47
2022-11-24T15:57:51.496Z,44.22
2022-11-24T16:00:21.708Z,43.83
2022-11-24T16:02:50.318Z,45.67
2022-11-24T16:05:21.122Z,47.47
2022-11-24T16:07:52.593Z,43.45
2022-11-24T16:10:25.781Z,44.28
2022-11-24T16:12:53.788Z,43.88
2022-11-24T16:15:23.107Z,45.42
2022-11-24T16:17:51.605Z,46.00
2022-11-24T16:20:21.623Z,45.67
2022-11-24T16:22:49.960Z,46.08
2022-11-24T16:25:18.664Z,46.20
2022-11-24T16:27:46.760Z,46.47
2022-11-24T16:30:16.353Z,47.65
2022-11-24T16:32:44.960Z,44.08
2022-11-24T16:35:13.977Z,45.63
2022-11-24T16:37:43.516Z,46.20
2022-11-24T16:40:12.736Z,47.70
2022-11-24T16:42:41.207Z,45.75
2022-11-24T16:45:12.246Z,43.97
2022-11-24T16:47:41.737Z,45.17
2022-11-24T16:50:13.532Z,46.63
2022-11-24T16:52:43.997Z,45.92
2022-11-24T16:55:14.176Z,46.00
2022-11-24T16:57:43.776Z,43.33
2022-11-24T17:00:13.064Z,45.10
2022-11-24T17:02:41.343Z,46.50
2022-11-24T17:05:10.051Z,42.70
2022-11-24T17:07:38.258Z,42.58
2022-11-24T17:10:09.693Z,43.55
2022-11-24T17:12:39.087Z,43.67
2022-11-24T17:15:31.722Z,43.78
2022-11-24T17:18:23.030Z,42.50
2022-11-24T17:20:45.515Z,43.03
2022-11-24T17:23:13.745Z,41.40
2022-11-24T17:25:43.457Z,42.45
2022-11-24T17:28:11.662Z,44.10
2022-11-24T17:30:41.065Z,40.47
2022-11-24T17:33:09.203Z,43.03
2022-11-24T17:35:39.150Z,41.75
2022-11-24T17:38:08.736Z,42.97
2022-11-24T17:40:37.177Z,42.13
2022-11-24T17:43:07.387Z,42.80
2022-11-24T17:45:37.597Z,45.47
2022-11-24T17:48:06.018Z,43.28
2022-11-24T17:50:34.024Z,43.33
2022-11-24T17:53:02.020Z,45.35
2022-11-24T17:55:30.057Z,47.50
2022-11-24T17:57:57.956Z,43.25
2022-11-24T18:00:28.054Z,44.78
2022-11-24T18:02:58.822Z,43.75
2022-11-24T18:05:29.320Z,44.55
2022-11-24T18:07:58.577Z,44.03
2022-11-24T18:10:30.133Z,47.40
2022-11-24T18:12:58.647Z,46.63
2022-11-24T18:15:28.546Z,46.83
2022-11-24T18:17:57.562Z,45.83
2022-11-24T18:20:29.345Z,45.42
2022-11-24T18:23:05.619Z,45.90
2022-11-24T18:25:37.302Z,45.25
2022-11-24T18:28:05.770Z,45.47
2022-11-24T18:30:35.453Z,46.10
2022-11-24T18:33:04.665Z,42.20
2022-11-24T18:35:32.971Z,43.22
2022-11-24T18:38:01.765Z,43.55
2022-11-24T18:40:30.278Z,42.25
2022-11-24T18:42:59.275Z,43.10
2022-11-24T18:45:27.931Z,42.35
2022-11-24T18:47:57.640Z,44.33
2022-11-24T18:50:25.841Z,46.45
2022-11-24T18:52:54.772Z,48.58
2022-11-24T18:55:24.239Z,47.50
2022-11-24T18:57:52.586Z,45.97
2022-11-24T19:00:22.080Z,48.15
2022-11-24T19:02:51.637Z,48.20
2022-11-24T19:05:22.836Z,48.55
2022-11-24T19:07:50.977Z,49.45
2022-11-24T19:10:19.285Z,50.38
2022-11-24T19:12:48.464Z,49.90
2022-11-24T19:15:17.045Z,53.15
2022-11-24T19:17:47.506Z,53.10
2022-11-24T19:20:15.933Z,50.92
2022-11-24T19:22:45.431Z,51.42
2022-11-24T19:25:13.583Z,51.60
2022-11-24T19:27:42.117Z,55.10
2022-11-24T19:30:10.843Z,55.63
2022-11-24T19:32:38.959Z,55.22
2022-11-24T19:35:12.007Z,54.83
2022-11-24T19:37:40.645Z,54.47
2022-11-24T19:40:15.835Z,53.20
2022-11-24T19:42:44.295Z,55.50
2022-11-24T19:45:13.754Z,55.03
2022-11-24T19:47:41.769Z,52.15
2022-11-24T19:50:11.088Z,55.63
2022-11-24T19:52:42.519Z,54.40
2022-11-24T19:55:19.564Z,56.72
2022-11-24T19:57:50.613Z,56.85
2022-11-24T20:00:19.051Z,57.30
2022-11-24T20:02:50.144Z,60.05
2022-11-24T20:05:18.206Z,57.85
2022-11-24T20:07:46.313Z,59.70
2022-11-24T20:10:16.283Z,61.17
2022-11-24T20:12:44.359Z,61.28
2022-11-24T20:15:12.412Z,65.95
2022-11-24T20:17:43.228Z,69.93
2022-11-24T20:20:12.387Z,69.97
2022-11-24T20:22:43.330Z,69.43
2022-11-24T20:25:11.762Z,67.53
2022-11-24T20:27:41.133Z,71.78
2022-11-24T20:30:11.538Z,70.10
2022-11-24T20:32:42.088Z,78.55
2022-11-24T20:35:16.601Z,80.60
2022-11-24T20:37:46.470Z,83.28
2022-11-24T20:40:16.242Z,66.05
2022-11-24T20:42:45.963Z,74.20
2022-11-24T20:45:14.015Z,72.85
2022-11-24T20:47:42.228Z,71.90
2022-11-24T20:50:10.859Z,63.08
2022-11-24T20:52:39.278Z,73.50
2022-11-24T20:55:08.545Z,72.88
2022-11-24T20:57:36.979Z,80.45
2022-11-24T21:00:07.980Z,67.93
2022-11-24T21:02:36.242Z,73.35
2022-11-24T21:05:04.820Z,69.63
2022-11-24T21:07:33.138Z,69.03
2022-11-24T21:10:02.368Z,93.43
2022-11-24T21:12:30.596Z,69.07
2022-11-24T21:14:59.028Z,77.18
2022-11-24T21:17:29.104Z,77.88
2022-11-24T21:20:00.956Z,75.78
2022-11-24T21:24:58.837Z,67.00
2022-11-24T21:27:27.201Z,74.45
2022-11-24T21:29:55.425Z,67.43
2022-11-24T21:32:23.681Z,66.00
2022-11-24T21:34:53.787Z,65.30
2022-11-24T21:37:24.129Z,60.30
2022-11-24T21:39:52.376Z,61.53
2022-11-24T21:42:21.168Z,61.67
2022-11-24T21:44:49.423Z,63.17
2022-11-24T21:47:18.530Z,62.22
2022-11-24T21:49:46.701Z,61.97
2022-11-24T21:52:16.108Z,62.28
2022-11-24T21:54:44.535Z,59.58
2022-11-24T21:57:12.530Z,64.28
2022-11-24T21:59:40.500Z,57.15
2022-11-24T22:02:13.211Z,57.10
2022-11-24T22:04:41.647Z,55.50
2022-11-24T22:07:09.651Z,55.55
2022-11-24T22:09:39.191Z,56.95
2022-11-24T22:12:07.476Z,56.67
2022-11-24T22:14:40.206Z,57.05
2022-11-24T22:17:10.123Z,56.55
2022-11-24T22:19:38.256Z,54.50
2022-11-24T22:22:07.845Z,52.97
2022-11-24T22:24:36.156Z,53.17
2022-11-24T22:27:07.144Z,53.70
2022-11-24T22:29:35.462Z,54.22
2022-11-24T22:32:03.904Z,56.80
2022-11-24T22:34:33.195Z,57.22
2022-11-24T22:37:02.053Z,54.92
2022-11-24T22:39:29.994Z,55.42
2022-11-24T22:41:58.042Z,50.90
2022-11-24T22:44:27.329Z,51.53
2022-11-24T22:46:55.920Z,51.05
2022-11-24T22:49:24.336Z,50.42
2022-11-24T22:51:52.254Z,48.22
2022-11-24T22:54:24.121Z,49.95
2022-11-24T22:56:53.609Z,53.30
2022-11-24T22:59:23.840Z,48.53
2022-11-24T23:01:53.739Z,50.67
2022-11-24T23:04:22.147Z,49.75
2022-11-24T23:06:50.167Z,51.85
2022-11-24T23:09:18.430Z,49.92
2022-11-24T23:11:46.547Z,48.30
2022-11-24T23:14:16.196Z,48.85
2022-11-24T23:16:44.875Z,48.75
2022-11-24T23:19:15.513Z,49.50
2022-11-24T23:21:43.757Z,48.83
2022-11-24T23:24:12.612Z,46.25
2022-11-24T23:26:42.255Z,48.92
2022-11-24T23:29:11.969Z,48.35
2022-11-24T23:31:41.364Z,47.90
2022-11-24T23:34:10.868Z,48.63
2022-11-24T23:36:40.758Z,48.47
2022-11-24T23:39:13.281Z,46.30
2022-11-24T23:41:42.179Z,46.78
2022-11-24T23:44:10.111Z,48.60
2022-11-24T23:46:38.099Z,48.28
2022-11-24T23:49:06.395Z,46.33
2022-11-24T23:51:36.750Z,44.17
2022-11-24T23:54:08.567Z,44.70
2022-11-24T23:56:37.075Z,43.45
2022-11-24T23:59:06.517Z,43.92
